Terminal Aerodrome Forecast
Issued by NWS Austin/San Antonio, TX

Home | Current Version | Previous Version | Text Only | Print | Product List | Glossary On
Versions: 1 2 3 4 5 6 7 8 9 10 11 12 13 14 15 16 17
255
FTUS44 KEWX 281729
TAFAUS
TAF
KAUS 281729Z 2818/2924 18013KT P6SM SCT050
     FM290400 17013KT P6SM BKN025
     FM290500 16013KT P6SM BKN012
     FM292100 17009KT 5SM HZ OVC025=

USA.gov is the U.S. government's official web portal to all federal, state and local government web resources and services.